createdAt,value
2018-11-28T00:00:28.204Z,-81
2018-11-28T00:01:27.927Z,-78
2018-11-28T00:02:27.923Z,-79
2018-11-28T00:03:28.263Z,-82
2018-11-28T00:04:28.196Z,-81
2018-11-28T00:05:28.149Z,-80
2018-11-28T00:06:28.130Z,-81
2018-11-28T00:07:27.887Z,-79
2018-11-28T00:08:27.993Z,-79
2018-11-28T00:09:28.263Z,-80
2018-11-28T00:10:27.888Z,-78
2018-11-28T00:11:27.901Z,-78
2018-11-28T00:12:27.900Z,-79
2018-11-28T00:13:28.009Z,-79
2018-11-28T00:14:27.993Z,-79
2018-11-28T00:15:27.959Z,-79
2018-11-28T00:16:27.972Z,-80
2018-11-28T00:17:27.916Z,-79
2018-11-28T00:18:27.917Z,-79
2018-11-28T00:19:27.876Z,-79
2018-11-28T00:20:28.143Z,-79
2018-11-28T00:21:28.024Z,-79
2018-11-28T00:22:27.873Z,-77
2018-11-28T00:23:27.958Z,-76
2018-11-28T00:24:27.881Z,-76
2018-11-28T00:25:27.857Z,-78
2018-11-28T00:26:28.054Z,-76
2018-11-28T00:27:27.879Z,-76
2018-11-28T00:28:27.887Z,-77
2018-11-28T00:29:27.868Z,-77
2018-11-28T00:30:27.971Z,-76
2018-11-28T00:31:27.863Z,-76
2018-11-28T00:32:27.851Z,-76
2018-11-28T00:33:27.850Z,-77
2018-11-28T00:34:27.866Z,-76
2018-11-28T00:35:27.856Z,-76
2018-11-28T00:36:27.880Z,-77
2018-11-28T00:37:27.850Z,-76
2018-11-28T00:38:27.896Z,-76
2018-11-28T00:39:27.952Z,-76
2018-11-28T00:40:27.843Z,-76
2018-11-28T00:41:27.915Z,-76
2018-11-28T00:42:27.971Z,-76
2018-11-28T00:43:27.913Z,-76
2018-11-28T00:44:27.922Z,-77
2018-11-28T00:45:27.855Z,-76
2018-11-28T00:46:27.861Z,-76
2018-11-28T00:47:27.874Z,-76
2018-11-28T00:48:27.896Z,-76
2018-11-28T00:49:27.907Z,-76
2018-11-28T00:50:27.945Z,-76
2018-11-28T00:51:28.071Z,-75
2018-11-28T00:52:27.875Z,-77
2018-11-28T00:53:27.933Z,-76
2018-11-28T00:54:28.194Z,-73
2018-11-28T00:55:28.002Z,-76
2018-11-28T00:56:27.914Z,-76
2018-11-28T00:57:27.872Z,-76
2018-11-28T00:58:27.981Z,-76
2018-11-28T00:59:28.199Z,-74
2018-11-28T01:00:27.854Z,-77
2018-11-28T01:01:27.931Z,-77
2018-11-28T01:02:27.906Z,-77
2018-11-28T01:03:28.196Z,-74
2018-11-28T01:04:28.123Z,-74
2018-11-28T01:05:27.859Z,-77
2018-11-28T01:06:28.165Z,-74
2018-11-28T01:07:27.854Z,-77
2018-11-28T01:08:27.858Z,-77
2018-11-28T01:09:27.781Z,-77
2018-11-28T01:10:27.843Z,-77
2018-11-28T01:11:27.812Z,-76
2018-11-28T01:12:27.790Z,-77
2018-11-28T01:13:28.668Z,-82
2018-11-28T01:14:27.841Z,-79
2018-11-28T01:15:27.827Z,-79
2018-11-28T01:16:27.831Z,-78
2018-11-28T01:17:27.951Z,-79
2018-11-28T01:18:27.828Z,-79
2018-11-28T01:19:27.833Z,-79
2018-11-28T01:20:28.040Z,-80
2018-11-28T01:21:28.343Z,-81
2018-11-28T01:22:27.992Z,-80
2018-11-28T01:23:27.795Z,-79
2018-11-28T01:24:28.296Z,-81
2018-11-28T01:25:27.876Z,-79
2018-11-28T01:26:28.056Z,-81
2018-11-28T01:27:27.787Z,-79
2018-11-28T01:28:28.155Z,-81
2018-11-28T01:29:27.837Z,-79
2018-11-28T01:30:27.997Z,-80
2018-11-28T01:31:27.967Z,-78
2018-11-28T01:32:27.791Z,-79
2018-11-28T01:33:27.919Z,-79
2018-11-28T01:34:27.770Z,-79
2018-11-28T01:35:27.791Z,-79
2018-11-28T01:36:27.926Z,-79
2018-11-28T01:37:27.774Z,-79
2018-11-28T01:38:27.849Z,-79
2018-11-28T01:39:27.790Z,-80
2018-11-28T01:40:27.899Z,-79
2018-11-28T01:41:27.921Z,-79
2018-11-28T01:42:27.911Z,-79
2018-11-28T01:43:27.769Z,-79
2018-11-28T01:44:28.014Z,-80
2018-11-28T01:45:27.937Z,-79
2018-11-28T01:46:27.848Z,-79
2018-11-28T01:47:27.829Z,-79
2018-11-28T01:48:27.975Z,-80
2018-11-28T01:49:27.816Z,-79
2018-11-28T01:50:27.979Z,-80
2018-11-28T01:51:27.771Z,-78
2018-11-28T01:52:27.760Z,-79
2018-11-28T01:53:27.960Z,-79
2018-11-28T01:54:27.788Z,-79
2018-11-28T01:55:27.939Z,-81
2018-11-28T01:56:27.931Z,-80
2018-11-28T01:57:27.796Z,-79
2018-11-28T01:58:27.720Z,-80
2018-11-28T01:59:27.755Z,-78
2018-11-28T02:00:27.738Z,-79
2018-11-28T02:01:27.790Z,-79
2018-11-28T02:02:27.766Z,-78
2018-11-28T02:03:27.738Z,-79
2018-11-28T02:04:27.734Z,-79
2018-11-28T02:05:27.760Z,-79
2018-11-28T02:06:27.756Z,-78
2018-11-28T02:07:27.752Z,-79
2018-11-28T02:08:27.797Z,-78
2018-11-28T02:09:27.783Z,-79
2018-11-28T02:10:27.724Z,-79
2018-11-28T02:11:27.761Z,-79
2018-11-28T02:12:27.767Z,-79
2018-11-28T02:13:27.762Z,-79
2018-11-28T02:14:27.708Z,-78
2018-11-28T02:15:27.706Z,-79
2018-11-28T02:16:27.708Z,-79
2018-11-28T02:17:27.722Z,-78
2018-11-28T02:18:27.747Z,-79
2018-11-28T02:19:27.700Z,-79
2018-11-28T02:20:27.817Z,-79
2018-11-28T02:21:27.716Z,-80
2018-11-28T02:22:27.737Z,-79
2018-11-28T02:23:27.657Z,-79
2018-11-28T02:24:27.856Z,-80
2018-11-28T02:25:27.779Z,-78
2018-11-28T02:26:27.753Z,-79
2018-11-28T02:27:27.704Z,-79
2018-11-28T02:28:27.750Z,-79
2018-11-28T02:29:27.878Z,-80
2018-11-28T02:30:27.810Z,-79
2018-11-28T02:31:27.857Z,-80
2018-11-28T02:32:27.706Z,-79
2018-11-28T02:33:28.419Z,-82
2018-11-28T02:34:27.742Z,-79
2018-11-28T02:35:27.910Z,-81
2018-11-28T02:36:27.893Z,-79
2018-11-28T02:37:27.715Z,-79
2018-11-28T02:38:27.705Z,-79
2018-11-28T02:39:27.877Z,-80
2018-11-28T02:40:27.920Z,-76
2018-11-28T02:41:27.690Z,-77
2018-11-28T02:42:27.723Z,-77
2018-11-28T02:43:27.887Z,-76
2018-11-28T02:44:27.742Z,-77
2018-11-28T02:45:27.923Z,-76
2018-11-28T02:46:27.682Z,-77
2018-11-28T02:47:27.709Z,-77
2018-11-28T02:48:27.721Z,-77
2018-11-28T02:49:27.790Z,-76
2018-11-28T02:50:27.843Z,-75
2018-11-28T02:51:27.818Z,-77
2018-11-28T02:52:27.919Z,-76
2018-11-28T02:53:27.878Z,-75
2018-11-28T02:54:27.932Z,-75
2018-11-28T02:55:27.950Z,-76
2018-11-28T02:56:27.945Z,-76
2018-11-28T02:57:27.673Z,-76
2018-11-28T02:58:27.686Z,-77
2018-11-28T02:59:27.659Z,-77
2018-11-28T03:00:27.855Z,-76
2018-11-28T03:01:27.778Z,-76
2018-11-28T03:02:27.816Z,-76
2018-11-28T03:03:28.044Z,-73
2018-11-28T03:04:27.657Z,-77
2018-11-28T03:05:27.705Z,-77
2018-11-28T03:06:27.687Z,-76
2018-11-28T03:07:27.814Z,-75
2018-11-28T03:08:27.720Z,-77
2018-11-28T03:09:27.778Z,-77
2018-11-28T03:10:27.658Z,-77
2018-11-28T03:11:27.640Z,-76
2018-11-28T03:12:27.843Z,-75
2018-11-28T03:13:27.838Z,-76
2018-11-28T03:14:27.614Z,-76
2018-11-28T03:15:27.876Z,-77
2018-11-28T03:16:27.693Z,-76
2018-11-28T03:17:27.669Z,-77
2018-11-28T03:18:27.726Z,-77
2018-11-28T03:19:27.803Z,-77
2018-11-28T03:20:27.748Z,-76
2018-11-28T03:21:27.680Z,-77
2018-11-28T03:22:27.770Z,-77
2018-11-28T03:23:27.710Z,-76
2018-11-28T03:24:27.616Z,-76
2018-11-28T03:25:27.812Z,-76
2018-11-28T03:26:27.719Z,-76
2018-11-28T03:27:28.011Z,-75
2018-11-28T03:28:27.705Z,-77
2018-11-28T03:29:27.756Z,-76
2018-11-28T03:30:28.027Z,-75
2018-11-28T03:31:27.697Z,-76
2018-11-28T03:32:27.772Z,-77
2018-11-28T03:33:27.792Z,-76
2018-11-28T03:34:28.196Z,-74
2018-11-28T03:35:27.830Z,-76
2018-11-28T03:36:27.683Z,-77
2018-11-28T03:37:27.639Z,-77
2018-11-28T03:38:27.711Z,-77
2018-11-28T03:39:27.723Z,-76
2018-11-28T03:40:27.678Z,-76
2018-11-28T03:41:27.633Z,-76
2018-11-28T03:42:27.669Z,-76
2018-11-28T03:43:27.612Z,-77
2018-11-28T03:44:28.115Z,-76
2018-11-28T03:45:27.633Z,-77
2018-11-28T03:46:27.634Z,-77
2018-11-28T03:47:27.759Z,-78
2018-11-28T03:48:27.633Z,-77
2018-11-28T03:49:27.699Z,-77
2018-11-28T03:50:27.642Z,-76
2018-11-28T03:51:27.698Z,-77
2018-11-28T03:52:27.638Z,-76
2018-11-28T03:53:27.627Z,-77
2018-11-28T03:54:27.637Z,-77
2018-11-28T03:55:27.742Z,-76
2018-11-28T03:56:27.604Z,-77
2018-11-28T03:57:27.656Z,-77
2018-11-28T03:58:27.644Z,-77
2018-11-28T03:59:27.689Z,-76
2018-11-28T04:00:27.718Z,-76
2018-11-28T04:01:27.861Z,-75
2018-11-28T04:02:27.742Z,-77
2018-11-28T04:03:27.660Z,-77
2018-11-28T04:04:27.717Z,-76
2018-11-28T04:05:27.621Z,-76
2018-11-28T04:06:27.637Z,-76
2018-11-28T04:07:27.672Z,-76
2018-11-28T04:08:27.629Z,-77
2018-11-28T04:09:27.782Z,-75
2018-11-28T04:10:27.693Z,-76
2018-11-28T04:11:28.348Z,-74
2018-11-28T04:12:27.850Z,-76
2018-11-28T04:13:27.685Z,-76
2018-11-28T04:14:27.653Z,-77
2018-11-28T04:15:27.730Z,-76
2018-11-28T04:16:27.609Z,-77
2018-11-28T04:17:27.601Z,-76
2018-11-28T04:18:27.883Z,-76
2018-11-28T04:19:27.649Z,-77
2018-11-28T04:20:27.690Z,-76
2018-11-28T04:21:27.749Z,-76
2018-11-28T04:22:27.568Z,-77
2018-11-28T04:23:27.782Z,-75
2018-11-28T04:24:27.938Z,-74
2018-11-28T04:25:27.741Z,-77
2018-11-28T04:26:27.613Z,-77
2018-11-28T04:27:27.670Z,-76
2018-11-28T04:28:27.632Z,-77
2018-11-28T04:29:27.691Z,-76
2018-11-28T04:30:27.591Z,-77
2018-11-28T04:31:27.790Z,-77
2018-11-28T04:32:27.587Z,-76
2018-11-28T04:33:27.583Z,-77
2018-11-28T04:34:27.650Z,-77
2018-11-28T04:35:28.090Z,-74
2018-11-28T04:36:27.783Z,-75
2018-11-28T04:37:27.555Z,-77
2018-11-28T04:38:27.698Z,-77
2018-11-28T04:39:27.699Z,-77
2018-11-28T04:40:27.850Z,-76
2018-11-28T04:41:27.532Z,-76
2018-11-28T04:42:27.727Z,-76
2018-11-28T04:43:27.688Z,-75
2018-11-28T04:44:27.795Z,-76
2018-11-28T04:45:27.743Z,-76
2018-11-28T04:46:27.585Z,-76
2018-11-28T04:47:27.575Z,-77
2018-11-28T04:48:27.619Z,-76
2018-11-28T04:49:27.537Z,-77
2018-11-28T04:50:27.617Z,-77
2018-11-28T04:51:27.605Z,-76
2018-11-28T04:52:27.577Z,-77
2018-11-28T04:53:27.813Z,-76
2018-11-28T04:54:27.671Z,-76
2018-11-28T04:55:27.523Z,-76
2018-11-28T04:56:27.529Z,-77
2018-11-28T04:57:27.637Z,-76
2018-11-28T04:58:27.647Z,-75
2018-11-28T04:59:27.668Z,-76
2018-11-28T05:00:27.619Z,-77
2018-11-28T05:01:27.728Z,-75
2018-11-28T05:02:27.696Z,-77
2018-11-28T05:03:27.505Z,-77
2018-11-28T05:04:27.704Z,-76
2018-11-28T05:05:27.566Z,-76
2018-11-28T05:06:27.665Z,-76
2018-11-28T05:07:27.710Z,-76
2018-11-28T05:08:27.766Z,-77
2018-11-28T05:09:27.755Z,-76
2018-11-28T05:10:27.709Z,-77
2018-11-28T05:11:28.383Z,-74
2018-11-28T05:12:27.671Z,-76
2018-11-28T05:13:27.602Z,-78
2018-11-28T05:14:27.761Z,-75
2018-11-28T05:15:27.575Z,-76
2018-11-28T05:16:27.668Z,-74
2018-11-28T05:17:27.625Z,-76
2018-11-28T05:18:27.495Z,-76
2018-11-28T05:19:27.487Z,-76
2018-11-28T05:20:27.634Z,-76
2018-11-28T05:21:27.541Z,-77
2018-11-28T05:22:27.525Z,-77
2018-11-28T05:23:27.472Z,-77
2018-11-28T05:24:27.434Z,-76
2018-11-28T05:25:28.572Z,-77
2018-11-28T05:26:27.453Z,-77
2018-11-28T05:27:27.604Z,-76
2018-11-28T05:28:27.473Z,-76
2018-11-28T05:29:27.456Z,-76
2018-11-28T05:30:27.511Z,-76
2018-11-28T05:31:27.503Z,-76
2018-11-28T05:32:27.499Z,-76
2018-11-28T05:33:27.552Z,-76
2018-11-28T05:34:27.440Z,-76
2018-11-28T05:35:27.519Z,-76
2018-11-28T05:36:28.742Z,-73
2018-11-28T05:37:27.536Z,-77
2018-11-28T05:38:27.465Z,-76
2018-11-28T05:39:27.534Z,-76
2018-11-28T05:40:27.927Z,-75
2018-11-28T05:41:29.895Z,-76
2018-11-28T05:42:27.777Z,-76
2018-11-28T05:43:27.497Z,-77
2018-11-28T05:44:27.569Z,-77
2018-11-28T05:45:27.984Z,-75
2018-11-28T05:46:27.597Z,-76
2018-11-28T05:47:27.398Z,-77
2018-11-28T05:48:27.671Z,-76
2018-11-28T05:49:27.485Z,-74
2018-11-28T05:50:27.718Z,-76
2018-11-28T05:51:27.431Z,-77
2018-11-28T05:52:27.579Z,-77
2018-11-28T05:53:27.616Z,-77
2018-11-28T05:54:27.578Z,-77
2018-11-28T05:55:27.653Z,-77
2018-11-28T05:56:27.652Z,-76
2018-11-28T05:57:27.454Z,-77
2018-11-28T05:58:27.581Z,-77
2018-11-28T05:59:27.997Z,-76
2018-11-28T06:00:28.277Z,-75
2018-11-28T06:01:28.270Z,-73
2018-11-28T06:02:27.506Z,-76
2018-11-28T06:03:27.410Z,-77
2018-11-28T06:04:27.431Z,-77
2018-11-28T06:05:27.712Z,-79
2018-11-28T06:06:27.666Z,-77
2018-11-28T06:07:27.657Z,-77
2018-11-28T06:08:27.448Z,-78
2018-11-28T06:09:27.881Z,-75
2018-11-28T06:10:27.513Z,-78
2018-11-28T06:11:27.534Z,-77
2018-11-28T06:12:27.461Z,-78
2018-11-28T06:13:27.401Z,-78
2018-11-28T06:14:27.579Z,-78
2018-11-28T06:15:27.562Z,-78
2018-11-28T06:16:27.422Z,-78
2018-11-28T06:17:27.480Z,-78
2018-11-28T06:18:27.591Z,-77
2018-11-28T06:19:27.491Z,-79
2018-11-28T06:20:27.692Z,-77
2018-11-28T06:21:27.427Z,-78
2018-11-28T06:22:27.461Z,-78
2018-11-28T06:23:27.450Z,-79
2018-11-28T06:24:27.510Z,-78
2018-11-28T06:25:27.856Z,-78
2018-11-28T06:26:27.473Z,-78
2018-11-28T06:27:27.598Z,-78
2018-11-28T06:28:27.552Z,-77
2018-11-28T06:29:27.475Z,-78
2018-11-28T06:30:27.650Z,-78
2018-11-28T06:31:27.456Z,-78
2018-11-28T06:32:27.568Z,-78
2018-11-28T06:33:27.619Z,-77
2018-11-28T06:34:27.551Z,-80
2018-11-28T06:35:27.786Z,-80
2018-11-28T06:36:27.675Z,-81
2018-11-28T06:37:28.740Z,-80
2018-11-28T06:38:27.400Z,-80
2018-11-28T06:39:27.492Z,-80
2018-11-28T06:40:27.497Z,-80
2018-11-28T06:41:27.566Z,-81
2018-11-28T06:42:27.523Z,-80
2018-11-28T06:43:27.598Z,-81
2018-11-28T06:44:27.507Z,-81
2018-11-28T06:45:27.875Z,-81
2018-11-28T06:46:27.499Z,-80
2018-11-28T06:47:27.470Z,-81
2018-11-28T06:48:27.549Z,-80
2018-11-28T06:49:27.519Z,-80
2018-11-28T06:50:27.448Z,-81
2018-11-28T06:51:27.712Z,-81
2018-11-28T06:52:27.374Z,-80
2018-11-28T06:53:27.420Z,-80
2018-11-28T06:54:27.487Z,-81
2018-11-28T06:55:27.496Z,-81
2018-11-28T06:56:27.525Z,-82
2018-11-28T06:57:27.379Z,-80
2018-11-28T06:58:27.449Z,-80
2018-11-28T06:59:27.453Z,-80
2018-11-28T07:00:27.327Z,-80
2018-11-28T07:01:27.383Z,-80
2018-11-28T07:02:27.371Z,-81
2018-11-28T07:03:27.374Z,-80
2018-11-28T07:04:28.410Z,-79
2018-11-28T07:05:27.907Z,-78
2018-11-28T07:06:27.383Z,-79
2018-11-28T07:07:27.348Z,-78
2018-11-28T07:08:27.389Z,-79
2018-11-28T07:09:27.426Z,-78
2018-11-28T07:10:27.450Z,-78
2018-11-28T07:11:27.344Z,-79
2018-11-28T07:12:27.463Z,-78
2018-11-28T07:13:27.403Z,-78
2018-11-28T07:14:27.491Z,-78
2018-11-28T07:15:27.357Z,-79
2018-11-28T07:16:27.517Z,-78
2018-11-28T07:17:27.406Z,-79
2018-11-28T07:18:27.361Z,-79
2018-11-28T07:19:27.505Z,-79
2018-11-28T07:20:27.393Z,-78
2018-11-28T07:21:27.374Z,-79
2018-11-28T07:22:27.456Z,-78
2018-11-28T07:23:27.412Z,-78
2018-11-28T07:24:27.556Z,-78
2018-11-28T07:25:27.771Z,-77
2018-11-28T07:26:27.406Z,-78
2018-11-28T07:27:27.449Z,-79
2018-11-28T07:28:27.876Z,-76
2018-11-28T07:29:27.384Z,-78
2018-11-28T07:30:27.474Z,-79
2018-11-28T07:31:27.444Z,-79
2018-11-28T07:32:27.457Z,-79
2018-11-28T07:33:27.444Z,-78
2018-11-28T07:34:27.338Z,-79
2018-11-28T07:35:27.746Z,-77
2018-11-28T07:36:27.522Z,-77
2018-11-28T07:37:27.376Z,-78
2018-11-28T07:38:27.741Z,-77
2018-11-28T07:39:27.678Z,-77
2018-11-28T07:40:27.409Z,-79
2018-11-28T07:41:27.381Z,-79
2018-11-28T07:42:27.357Z,-78
2018-11-28T07:43:27.312Z,-78
2018-11-28T07:44:27.457Z,-78
2018-11-28T07:45:27.487Z,-78
2018-11-28T07:46:28.458Z,-78
2018-11-28T07:47:28.224Z,-77
2018-11-28T07:48:27.318Z,-78
2018-11-28T07:49:27.526Z,-78
2018-11-28T07:50:27.274Z,-79
2018-11-28T07:51:27.345Z,-79
2018-11-28T07:52:27.392Z,-79
2018-11-28T07:53:27.281Z,-79
2018-11-28T07:54:27.301Z,-77
2018-11-28T07:55:27.862Z,-76
2018-11-28T07:56:27.298Z,-78
2018-11-28T07:57:27.269Z,-78
2018-11-28T07:58:27.312Z,-78
2018-11-28T07:59:27.289Z,-79
2018-11-28T08:00:27.397Z,-78
2018-11-28T08:01:27.368Z,-78
2018-11-28T08:02:27.402Z,-78
2018-11-28T08:03:27.299Z,-78
2018-11-28T08:04:27.701Z,-79
2018-11-28T08:05:27.616Z,-76
2018-11-28T08:06:27.770Z,-75
2018-11-28T08:07:27.261Z,-78
2018-11-28T08:08:27.284Z,-79
2018-11-28T08:09:27.477Z,-78
2018-11-28T08:10:27.952Z,-79
2018-11-28T08:11:27.407Z,-78
2018-11-28T08:12:27.348Z,-79
2018-11-28T08:13:27.387Z,-78
2018-11-28T08:14:27.444Z,-77
2018-11-28T08:15:27.367Z,-79
2018-11-28T08:16:27.250Z,-78
2018-11-28T08:17:27.707Z,-76
2018-11-28T08:18:27.287Z,-78
2018-11-28T08:19:27.260Z,-79
2018-11-28T08:20:27.438Z,-77
2018-11-28T08:21:27.445Z,-77
2018-11-28T08:22:27.717Z,-78
2018-11-28T08:23:28.543Z,-79
2018-11-28T08:24:27.390Z,-78
2018-11-28T08:25:28.483Z,-79
2018-11-28T08:26:27.708Z,-76
2018-11-28T08:27:27.265Z,-78
2018-11-28T08:28:27.385Z,-78
2018-11-28T08:29:27.288Z,-79
2018-11-28T08:30:27.363Z,-79
2018-11-28T08:31:27.303Z,-78
2018-11-28T08:32:27.344Z,-78
2018-11-28T08:33:27.654Z,-77
2018-11-28T08:34:27.457Z,-77
2018-11-28T08:35:27.258Z,-78
2018-11-28T08:36:27.301Z,-79
2018-11-28T08:37:27.408Z,-78
2018-11-28T08:38:27.282Z,-78
2018-11-28T08:39:27.218Z,-78
2018-11-28T08:40:27.457Z,-78
2018-11-28T08:41:27.222Z,-78
2018-11-28T08:42:27.334Z,-78
2018-11-28T08:43:27.303Z,-78
2018-11-28T08:44:27.246Z,-80
2018-11-28T08:45:27.270Z,-80
2018-11-28T08:46:27.375Z,-80
2018-11-28T08:47:27.517Z,-82
2018-11-28T08:48:27.212Z,-80
2018-11-28T08:49:27.236Z,-80
2018-11-28T08:50:27.178Z,-80
2018-11-28T08:51:27.508Z,-82
2018-11-28T08:52:27.273Z,-80
2018-11-28T08:53:27.338Z,-80
2018-11-28T08:54:27.221Z,-80
2018-11-28T08:55:27.264Z,-80
2018-11-28T08:56:27.255Z,-81
2018-11-28T08:57:27.177Z,-80
2018-11-28T08:58:27.380Z,-80
2018-11-28T08:59:27.281Z,-80
2018-11-28T09:00:27.336Z,-80
2018-11-28T09:01:27.464Z,-80
2018-11-28T09:02:27.363Z,-80
2018-11-28T09:03:27.340Z,-82
2018-11-28T09:04:27.547Z,-77
2018-11-28T09:05:27.233Z,-79
2018-11-28T09:06:27.237Z,-78
2018-11-28T09:07:27.451Z,-77
2018-11-28T09:08:27.231Z,-79
2018-11-28T09:09:27.222Z,-78
2018-11-28T09:10:27.577Z,-79
2018-11-28T09:11:27.275Z,-78
2018-11-28T09:12:27.317Z,-78
2018-11-28T09:13:27.555Z,-77
2018-11-28T09:14:27.581Z,-76
2018-11-28T09:15:27.408Z,-77
2018-11-28T09:16:27.208Z,-76
2018-11-28T09:17:27.233Z,-77
2018-11-28T09:18:27.170Z,-78
2018-11-28T09:19:27.187Z,-78
2018-11-28T09:20:27.507Z,-78
2018-11-28T09:21:27.272Z,-78
2018-11-28T09:22:27.253Z,-78
2018-11-28T09:23:27.359Z,-78
2018-11-28T09:24:27.189Z,-78
2018-11-28T09:25:27.205Z,-79
2018-11-28T09:26:27.221Z,-77
2018-11-28T09:27:27.188Z,-78
2018-11-28T09:28:27.180Z,-79
2018-11-28T09:29:27.326Z,-77
2018-11-28T09:30:27.224Z,-78
2018-11-28T09:31:27.339Z,-78
2018-11-28T09:32:27.236Z,-78
2018-11-28T09:33:27.419Z,-78
2018-11-28T09:34:27.329Z,-81
2018-11-28T09:35:27.367Z,-80
2018-11-28T09:36:27.223Z,-80
2018-11-28T09:37:27.228Z,-80
2018-11-28T09:38:27.234Z,-80
2018-11-28T09:39:27.531Z,-81
2018-11-28T09:40:27.266Z,-81
2018-11-28T09:41:27.133Z,-80
2018-11-28T09:42:27.280Z,-80
2018-11-28T09:43:27.196Z,-80
2018-11-28T09:44:27.287Z,-80
2018-11-28T09:45:27.251Z,-82
2018-11-28T09:46:27.189Z,-80
2018-11-28T09:47:27.175Z,-80
2018-11-28T09:48:27.224Z,-79
2018-11-28T09:49:27.486Z,-79
2018-11-28T09:50:27.263Z,-80
2018-11-28T09:51:27.165Z,-80
2018-11-28T09:52:27.214Z,-82
2018-11-28T09:53:27.274Z,-80
2018-11-28T09:54:27.310Z,-79
2018-11-28T09:55:27.370Z,-79
2018-11-28T09:56:27.996Z,-79
2018-11-28T09:57:27.195Z,-77
2018-11-28T09:58:27.104Z,-80
2018-11-28T09:59:27.327Z,-79
2018-11-28T10:00:27.383Z,-80
2018-11-28T10:01:27.146Z,-79
2018-11-28T10:02:27.218Z,-79
2018-11-28T10:03:27.391Z,-80
2018-11-28T10:04:27.115Z,-84
2018-11-28T10:05:27.319Z,-85
2018-11-28T10:06:27.197Z,-84
2018-11-28T10:07:27.272Z,-84
2018-11-28T10:08:27.265Z,-85
2018-11-28T10:09:27.253Z,-84
2018-11-28T10:10:27.271Z,-84
2018-11-28T10:11:27.338Z,-83
2018-11-28T10:12:27.288Z,-84
2018-11-28T10:13:27.399Z,-84
2018-11-28T10:14:27.115Z,-84
2018-11-28T10:15:27.198Z,-84
2018-11-28T10:16:27.234Z,-84
2018-11-28T10:17:27.223Z,-84
2018-11-28T10:18:27.126Z,-83
2018-11-28T10:19:27.394Z,-84
2018-11-28T10:20:27.277Z,-84
2018-11-28T10:21:27.488Z,-85
2018-11-28T10:22:27.159Z,-80
2018-11-28T10:23:27.222Z,-81
2018-11-28T10:24:27.327Z,-81
2018-11-28T10:25:27.477Z,-80
2018-11-28T10:26:27.169Z,-80
2018-11-28T10:27:27.249Z,-81
2018-11-28T10:28:27.237Z,-80
2018-11-28T10:29:27.182Z,-80
2018-11-28T10:30:27.369Z,-80
2018-11-28T10:31:27.285Z,-81
2018-11-28T10:32:27.092Z,-80
2018-11-28T10:33:27.168Z,-80
2018-11-28T10:34:29.976Z,-80
2018-11-28T10:35:27.163Z,-81
2018-11-28T10:36:27.349Z,-81
2018-11-28T10:37:27.160Z,-80
2018-11-28T10:38:27.321Z,-81
2018-11-28T10:39:27.122Z,-80
2018-11-28T10:40:27.102Z,-81
2018-11-28T10:41:27.191Z,-80
2018-11-28T10:42:27.202Z,-81
2018-11-28T10:43:27.238Z,-80
2018-11-28T10:44:27.213Z,-80
2018-11-28T10:45:27.205Z,-81
2018-11-28T10:46:28.007Z,-81
2018-11-28T10:47:27.078Z,-80
2018-11-28T10:48:27.234Z,-81
2018-11-28T10:49:27.082Z,-80
2018-11-28T10:50:27.171Z,-80
2018-11-28T10:51:27.344Z,-82
2018-11-28T10:52:27.255Z,-81
2018-11-28T10:53:27.144Z,-80
2018-11-28T10:54:27.446Z,-82
2018-11-28T10:55:27.087Z,-80
2018-11-28T10:56:27.342Z,-81
2018-11-28T10:57:27.301Z,-81
2018-11-28T10:58:27.948Z,-81
2018-11-28T10:59:27.319Z,-81
2018-11-28T11:00:27.027Z,-80
2018-11-28T11:01:27.792Z,-81
2018-11-28T11:02:27.138Z,-80
2018-11-28T11:03:27.043Z,-80
2018-11-28T11:04:27.595Z,-81
2018-11-28T11:05:27.371Z,-81
2018-11-28T11:06:27.435Z,-81
2018-11-28T11:07:27.168Z,-81
2018-11-28T11:08:27.314Z,-82
2018-11-28T11:09:27.456Z,-81
2018-11-28T11:10:27.108Z,-80
2018-11-28T11:11:27.173Z,-81
2018-11-28T11:12:27.242Z,-81
2018-11-28T11:13:27.009Z,-81
2018-11-28T11:14:27.165Z,-82
2018-11-28T11:15:27.224Z,-85
2018-11-28T11:16:27.208Z,-85
2018-11-28T11:17:27.238Z,-82
2018-11-28T11:18:28.585Z,-81
2018-11-28T11:19:27.020Z,-80
2018-11-28T11:20:27.012Z,-80
2018-11-28T11:21:27.336Z,-82
2018-11-28T11:22:27.222Z,-81
2018-11-28T11:23:27.428Z,-84
2018-11-28T11:24:27.245Z,-80
2018-11-28T11:25:27.023Z,-80
2018-11-28T11:26:27.474Z,-79
2018-11-28T11:27:27.176Z,-78
2018-11-28T11:28:27.444Z,-79
2018-11-28T11:29:27.325Z,-79
2018-11-28T11:30:27.015Z,-79
2018-11-28T11:31:27.000Z,-79
2018-11-28T11:32:27.108Z,-79
2018-11-28T11:33:27.274Z,-79
2018-11-28T11:34:27.405Z,-79
2018-11-28T11:35:27.083Z,-79
2018-11-28T11:36:27.110Z,-79
2018-11-28T11:37:27.009Z,-79
2018-11-28T11:38:27.242Z,-79
2018-11-28T11:39:27.072Z,-79
2018-11-28T11:40:27.001Z,-79
2018-11-28T11:41:27.449Z,-79
2018-11-28T11:42:26.979Z,-79
2018-11-28T11:43:27.026Z,-79
2018-11-28T11:44:26.984Z,-79
2018-11-28T11:45:27.017Z,-79
2018-11-28T11:46:26.962Z,-79
2018-11-28T11:47:27.491Z,-79
2018-11-28T11:48:26.983Z,-79
2018-11-28T11:49:28.480Z,-79
2018-11-28T11:50:26.958Z,-79
2018-11-28T11:51:27.012Z,-79
2018-11-28T11:52:27.909Z,-79
2018-11-28T11:53:27.419Z,-79
2018-11-28T11:54:26.988Z,-79
2018-11-28T11:55:27.347Z,-79
2018-11-28T11:56:27.801Z,-79
2018-11-28T11:57:26.988Z,-79
2018-11-28T11:58:27.381Z,-79
2018-11-28T11:59:27.063Z,-79
2018-11-28T12:00:27.009Z,-79
2018-11-28T12:01:27.016Z,-79
2018-11-28T12:02:27.019Z,-79
2018-11-28T12:03:27.114Z,-79
2018-11-28T12:04:26.967Z,-79
2018-11-28T12:05:26.977Z,-80
2018-11-28T12:06:26.958Z,-79
2018-11-28T12:07:27.017Z,-79
2018-11-28T12:08:27.196Z,-79
2018-11-28T12:09:27.018Z,-79
2018-11-28T12:10:27.037Z,-79
2018-11-28T12:11:27.102Z,-79
2018-11-28T12:12:28.661Z,-79
2018-11-28T12:13:27.000Z,-79
2018-11-28T12:14:27.060Z,-79
2018-11-28T12:15:26.938Z,-79
2018-11-28T12:16:26.996Z,-79
2018-11-28T12:17:27.807Z,-79
2018-11-28T12:18:27.004Z,-79
2018-11-28T12:19:26.993Z,-79
2018-11-28T12:20:27.017Z,-79
2018-11-28T12:21:26.970Z,-79
2018-11-28T12:22:26.993Z,-79
2018-11-28T12:23:27.089Z,-79
2018-11-28T12:24:27.205Z,-79
2018-11-28T12:25:27.077Z,-79
2018-11-28T12:26:27.163Z,-79
2018-11-28T12:27:27.562Z,-79
2018-11-28T12:28:27.069Z,-79
2018-11-28T12:29:26.962Z,-80
2018-11-28T12:30:27.291Z,-79
2018-11-28T12:31:29.824Z,-79
2018-11-28T12:32:27.026Z,-79
2018-11-28T12:33:26.930Z,-78
2018-11-28T12:34:27.005Z,-79
2018-11-28T12:35:27.542Z,-79
2018-11-28T12:36:27.074Z,-79
2018-11-28T12:37:27.166Z,-79
2018-11-28T12:38:27.405Z,-79
2018-11-28T12:39:27.247Z,-79
2018-11-28T12:40:26.955Z,-79
2018-11-28T12:41:27.195Z,-79
2018-11-28T12:42:27.097Z,-79
2018-11-28T12:43:27.163Z,-79
2018-11-28T12:44:27.136Z,-79
2018-11-28T12:45:26.915Z,-78
2018-11-28T12:46:27.002Z,-79
2018-11-28T12:47:27.213Z,-79
2018-11-28T12:48:27.050Z,-79
2018-11-28T12:49:26.963Z,-79
2018-11-28T12:50:27.361Z,-79
2018-11-28T12:51:27.213Z,-79
2018-11-28T12:52:27.034Z,-80
2018-11-28T12:53:26.942Z,-80
2018-11-28T12:54:27.221Z,-79
2018-11-28T12:55:26.972Z,-79
2018-11-28T12:56:27.085Z,-79
2018-11-28T12:57:27.277Z,-79
2018-11-28T12:58:28.007Z,-79
2018-11-28T12:59:27.287Z,-79
2018-11-28T13:00:26.943Z,-79
2018-11-28T13:01:26.905Z,-79
2018-11-28T13:02:26.990Z,-79
2018-11-28T13:03:26.974Z,-79
2018-11-28T13:04:27.111Z,-79
2018-11-28T13:05:27.085Z,-81
2018-11-28T13:06:27.132Z,-81
2018-11-28T13:07:27.777Z,-82
2018-11-28T13:08:26.855Z,-81
2018-11-28T13:09:26.908Z,-81
2018-11-28T13:10:26.862Z,-81
2018-11-28T13:11:26.820Z,-81
2018-11-28T13:12:26.868Z,-81
2018-11-28T13:13:26.826Z,-81
2018-11-28T13:14:27.025Z,-81
2018-11-28T13:15:26.919Z,-81
2018-11-28T13:16:27.098Z,-82
2018-11-28T13:17:26.928Z,-81
2018-11-28T13:18:27.088Z,-82
2018-11-28T13:19:27.134Z,-81
2018-11-28T13:20:26.833Z,-81
2018-11-28T13:21:26.896Z,-81
2018-11-28T13:22:26.895Z,-81
2018-11-28T13:23:27.379Z,-82
2018-11-28T13:24:26.824Z,-81
2018-11-28T13:25:27.238Z,-82
2018-11-28T13:26:26.946Z,-81
2018-11-28T13:27:26.955Z,-81
2018-11-28T13:28:26.950Z,-82
2018-11-28T13:29:26.949Z,-81
2018-11-28T13:30:26.871Z,-81
2018-11-28T13:31:27.355Z,-82
2018-11-28T13:32:27.120Z,-80
2018-11-28T13:33:26.977Z,-81
2018-11-28T13:34:26.837Z,-82
2018-11-28T13:35:27.071Z,-82
2018-11-28T13:36:26.960Z,-81
2018-11-28T13:37:27.057Z,-82
2018-11-28T13:38:26.846Z,-81
2018-11-28T13:39:26.813Z,-81
2018-11-28T13:40:26.835Z,-82
2018-11-28T13:41:26.828Z,-81
2018-11-28T13:42:26.858Z,-82
2018-11-28T13:43:26.873Z,-81
2018-11-28T13:44:26.831Z,-81
2018-11-28T13:45:27.181Z,-84
2018-11-28T13:46:26.798Z,-81